Uniontown, Kentucky
Current Conditions -  °F | °C
As of 7:35 AM on Sunday 21 Dec 2014 (Local Time) from KEHR Reporting Station
Clear Clear  
Wind Chill: 19°   Ceiling: Unl
Heat Index: 25°   Visibility: 3mi
Dew Point: 23°   Wind: 5mph
Humidity: 93%   Direction: 80°E
Pressure: 30.27"   Gusts: NA
Location:  37.78°N, 87.93°W
Report Text: KEHR 211335Z AUTO 08004KT 3SM CLR M04/M05 A3027 RMK AO1
Loading
Personal Weather Stations






























Interactive Weather Map New forecast layout! Learn more

10-Day Weather Forecast

Advertisements
Track Severe Weather on mobile